Spirit Of New York — WCW9332 — position and weather

sailwx.info

Track history (hours):
 
Tides and Currents Weather Stations Pressure Air Temp Water Temp Dewpoint Dewpoint Depression Visibility Wind Speed Wind Dir Waves Ship Positions

Spirit Of New York

Owner: SPIRIT CRUISES LLC, NEW YORK, NY. More information available from US FCC via Universal Licensing System and Coast Guard Vessel Documentation Center.

Last reported at 2015-May-04 01:33 UTC. Time now 2015-May-04 02:59 UTC.
Position N 40°45' W 074°01'.

Length 62 m.

Type: Passenger vessel. MMSI: 338897000.

Date/timePositionNaut miles runAvg speedWind from/ knotsBaromVisibWave heightAir tempDewpointWater temp
2015-May-04 01:33N 40°45' W 074°01'4 3.9
2015-May-04 00:33N 40°41' W 074°02'4 3.8
2015-May-03 23:33N 40°45' W 074°01'1 0.0
2015-May-03 01:34N 40°44' W 074°01'2 1.8
2015-May-03 00:33N 40°42' W 073°60'3 3.2
2015-May-02 23:33N 40°45' W 074°01'1 0.6
2015-May-02 22:34N 40°45' W 074°01'0 0.0
2015-May-02 21:33N 40°45' W 074°01'1 0.2
2015-May-02 17:33N 40°44' W 074°01'2 2.1
2015-May-02 16:34N 40°42' W 074°02'3 3.0
2015-May-02 15:33N 40°45' W 074°01'0 0.0
2015-May-02 14:33N 40°45' W 074°01'0 0.0
2015-May-02 02:24N 40°45' W 074°01'0 0.0
2015-May-02 01:33N 40°45' W 074°01'4 4.0
2015-May-02 00:33N 40°41' W 074°03'4 4.3
2015-May-01 23:33N 40°45' W 074°01'1 0.6
2015-May-01 22:33N 40°45' W 074°01'0 0.0
2015-May-01 19:34N 40°45' W 074°01'2 1.9
2015-May-01 18:33N 40°47' W 073°60'5 4.5
2015-May-01 17:33N 40°42' W 073°60'3 3.5
2015-May-01 16:34N 40°46' W 074°01'1 0.8
2015-May-01 15:33N 40°45' W 074°01'0 0.0
2015-May-01 01:33N 40°45' W 074°01'3 3.1
2015-May-01 00:33N 40°42' W 074°02'3 2.6
2015-Apr-30 23:33N 40°44' W 074°01'1 0.0
2015-Apr-30 02:20N 40°45' W 074°01'1 1.0
2015-Apr-30 01:34N 40°46' W 074°01'4 3.9
2015-Apr-30 00:33N 40°42' W 074°02'3 3.1
2015-Apr-29 23:33N 40°45' W 074°01'1 0.9
2015-Apr-29 22:33N 40°46' W 074°01'3 0.1
2015-Apr-28 23:33N 40°43' W 074°01'2 2.0
2015-Apr-28 22:33N 40°45' W 074°01'0 0.0
2015-Apr-28 21:33N 40°45' W 074°01'0 0.0
2015-Apr-28 20:33N 40°45' W 074°01'0 0.0
2015-Apr-28 01:28N 40°45' W 074°01'4 4.4
2015-Apr-28 00:34N 40°41' W 074°02'3 3.0
2015-Apr-27 23:33N 40°44' W 074°01'1 1.0
2015-Apr-27 22:34N 40°45' W 074°01'0 0.0
2015-Apr-27 21:33N 40°45' W 074°01'0 0.0
2015-Apr-27 20:34N 40°45' W 074°01'0 0.0
2015-Apr-27 01:22N 40°45' W 074°01'4 4.9
2015-Apr-27 00:33N 40°41' W 074°03'3 3.3
2015-Apr-26 23:34N 40°44' W 074°01'1 0.1
2015-Apr-26 18:19N 40°45' W 074°01'1 0.8
2015-Apr-26 17:34N 40°44' W 074°01'3 2.9
2015-Apr-26 16:33N 40°42' W 074°02'4 3.5
2015-Apr-26 15:33N 40°45' W 074°01'0 0.0
2015-Apr-26 03:20N 40°45' W 074°01'0 0.0
2015-Apr-26 02:33N 40°45' W 074°01'0 0.5
2015-Apr-26 01:33N 40°44' W 074°01'3 2.7
2015-Apr-26 00:33N 40°42' W 074°01'4 3.8
2015-Apr-25 23:33N 40°46' W 074°01'1 0.8
2015-Apr-25 22:34N 40°45' W 074°01'0 0.0
2015-Apr-25 21:34N 40°45' W 074°01'0 0.0
2015-Apr-25 20:33N 40°45' W 074°01'0 0.0
2015-Apr-25 19:33N 40°45' W 074°01'3 2.8
2015-Apr-25 18:33N 40°42' W 074°00'3 2.8
2015-Apr-25 17:33N 40°45' W 074°01'2 0.1
2015-Apr-25 01:33N 40°43' W 074°01'2 2.4
2015-Apr-25 00:34N 40°43' W 073°58'3 2.8
2015-Apr-24 23:33N 40°45' W 074°01'1 0.6
2015-Apr-24 22:33N 40°45' W 074°01'0 0.0
2015-Apr-24 21:33N 40°45' W 074°01'0 0.0
2015-Apr-24 20:33N 40°45' W 074°01'0 0.0
2015-Apr-24 19:33N 40°45' W 074°01'0 0.0
2015-Apr-24 18:33N 40°45' W 074°01'0 0.5
2015-Apr-24 17:33N 40°44' W 074°01'3 3.0
2015-Apr-24 16:33N 40°42' W 074°02'  
Track history (hours):
 
Tides and Currents Weather Stations Pressure Air Temp Water Temp Dewpoint Dewpoint Depression Visibility Wind Speed Wind Dir Waves Ship Positions

Spirit Of New York

Owner: SPIRIT CRUISES LLC, NEW YORK, NY. More information available from US FCC via Universal Licensing System and Coast Guard Vessel Documentation Center.

Last reported at 2015-May-04 01:33 UTC. Time now 2015-May-04 02:59 UTC.
Position N 40°45' W 074°01'.

Length 62 m.

Type: Passenger vessel. MMSI: 338897000.

Date/timePositionNaut miles runAvg speedWind from/ knotsBaromVisibWave heightAir tempDewpointWater temp
2015-May-04 01:33N 40°45' W 074°01'4 3.9
2015-May-04 00:33N 40°41' W 074°02'4 3.8
2015-May-03 23:33N 40°45' W 074°01'1 0.0
2015-May-03 01:34N 40°44' W 074°01'2 1.8
2015-May-03 00:33N 40°42' W 073°60'3 3.2
2015-May-02 23:33N 40°45' W 074°01'1 0.6
2015-May-02 22:34N 40°45' W 074°01'0 0.0
2015-May-02 21:33N 40°45' W 074°01'1 0.2
2015-May-02 17:33N 40°44' W 074°01'2 2.1
2015-May-02 16:34N 40°42' W 074°02'3 3.0
2015-May-02 15:33N 40°45' W 074°01'0 0.0
2015-May-02 14:33N 40°45' W 074°01'0 0.0
2015-May-02 02:24N 40°45' W 074°01'0 0.0
2015-May-02 01:33N 40°45' W 074°01'4 4.0
2015-May-02 00:33N 40°41' W 074°03'4 4.3
2015-May-01 23:33N 40°45' W 074°01'1 0.6
2015-May-01 22:33N 40°45' W 074°01'0 0.0
2015-May-01 19:34N 40°45' W 074°01'2 1.9
2015-May-01 18:33N 40°47' W 073°60'5 4.5
2015-May-01 17:33N 40°42' W 073°60'3 3.5
2015-May-01 16:34N 40°46' W 074°01'1 0.8
2015-May-01 15:33N 40°45' W 074°01'0 0.0
2015-May-01 01:33N 40°45' W 074°01'3 3.1
2015-May-01 00:33N 40°42' W 074°02'3 2.6
2015-Apr-30 23:33N 40°44' W 074°01'1 0.0
2015-Apr-30 02:20N 40°45' W 074°01'1 1.0
2015-Apr-30 01:34N 40°46' W 074°01'4 3.9
2015-Apr-30 00:33N 40°42' W 074°02'3 3.1
2015-Apr-29 23:33N 40°45' W 074°01'1 0.9
2015-Apr-29 22:33N 40°46' W 074°01'3 0.1
2015-Apr-28 23:33N 40°43' W 074°01'2 2.0
2015-Apr-28 22:33N 40°45' W 074°01'0 0.0
2015-Apr-28 21:33N 40°45' W 074°01'0 0.0
2015-Apr-28 20:33N 40°45' W 074°01'0 0.0
2015-Apr-28 01:28N 40°45' W 074°01'4 4.4
2015-Apr-28 00:34N 40°41' W 074°02'3 3.0
2015-Apr-27 23:33N 40°44' W 074°01'1 1.0
2015-Apr-27 22:34N 40°45' W 074°01'0 0.0
2015-Apr-27 21:33N 40°45' W 074°01'0 0.0
2015-Apr-27 20:34N 40°45' W 074°01'0 0.0
2015-Apr-27 01:22N 40°45' W 074°01'4 4.9
2015-Apr-27 00:33N 40°41' W 074°03'3 3.3
2015-Apr-26 23:34N 40°44' W 074°01'1 0.1
2015-Apr-26 18:19N 40°45' W 074°01'1 0.8
2015-Apr-26 17:34N 40°44' W 074°01'3 2.9
2015-Apr-26 16:33N 40°42' W 074°02'4 3.5
2015-Apr-26 15:33N 40°45' W 074°01'0 0.0
2015-Apr-26 03:20N 40°45' W 074°01'0 0.0
2015-Apr-26 02:33N 40°45' W 074°01'0 0.5
2015-Apr-26 01:33N 40°44' W 074°01'3 2.7
2015-Apr-26 00:33N 40°42' W 074°01'4 3.8
2015-Apr-25 23:33N 40°46' W 074°01'1 0.8
2015-Apr-25 22:34N 40°45' W 074°01'0 0.0
2015-Apr-25 21:34N 40°45' W 074°01'0 0.0
2015-Apr-25 20:33N 40°45' W 074°01'0 0.0
2015-Apr-25 19:33N 40°45' W 074°01'3 2.8
2015-Apr-25 18:33N 40°42' W 074°00'3 2.8
2015-Apr-25 17:33N 40°45' W 074°01'2 0.1
2015-Apr-25 01:33N 40°43' W 074°01'2 2.4
2015-Apr-25 00:34N 40°43' W 073°58'3 2.8
2015-Apr-24 23:33N 40°45' W 074°01'1 0.6
2015-Apr-24 22:33N 40°45' W 074°01'0 0.0
2015-Apr-24 21:33N 40°45' W 074°01'0 0.0
2015-Apr-24 20:33N 40°45' W 074°01'0 0.0
2015-Apr-24 19:33N 40°45' W 074°01'0 0.0
2015-Apr-24 18:33N 40°45' W 074°01'0 0.5
2015-Apr-24 17:33N 40°44' W 074°01'3 3.0
2015-Apr-24 16:33N 40°42' W 074°02'  

Dump ship's entire track history